Latest Weather Observations for Adelaide

IDS60901

Issued at 8:05 pm CST Tuesday 29 July 2014 (issued every 10 minutes, with the page automatically refreshed every 10 minutes)

About weather observations | Map of Adelaide area stations | Latest observations for Adelaide area | Other Formats
Station Details ID: 023090 Name: KENT TOWN Lat: -34.92 Lon: 138.62 Height: 48.0 m
Data from the previous 72 hours. | See also: Recent months at Adelaide
Date/Time
CST
Tmp

°C
App
Tmp
°C
Dew
Point
°C
Rel
Hum
%
Delta-T

°C
Wind Press
QNH
hPa
Press
MSL
hPa
Rain
since
9 am
mm
Dir
 
Spd
km/h
Gust
km/h
Spd
kts
Gust
kts
29/08:00pm 13.9 11.4 12.2 89 0.9 WNW 17 30 9 16 1018.3 - 3.2
29/07:30pm 13.7 12.0 12.4 92 0.7 NW 13 20 7 11 1018.0 - 3.2
29/07:00pm 13.8 11.0 12.7 93 0.6 WNW 19 30 10 16 1018.1 - 3.2
29/06:30pm 14.5 11.4 12.1 85 1.3 WNW 20 37 11 20 1017.7 - 3.0
29/06:00pm 14.2 12.5 12.5 89 0.9 NNW 13 19 7 10 1017.2 1017.3 3.0
29/05:30pm 14.1 13.3 12.8 92 0.7 NNW 9 17 5 9 1017.0 - 3.0
29/05:00pm 14.0 13.0 13.3 96 0.4 NW 11 19 6 10 1017.0 - 3.0
29/04:30pm 13.8 11.9 13.1 96 0.4 NW 15 24 8 13 1016.8 - 3.0
29/04:00pm 14.3 11.4 12.8 91 0.8 NW 20 37 11 20 1016.6 - 0.4
29/03:30pm 14.6 11.9 12.8 89 1.0 NW 19 28 10 15 1016.5 - 0.2
29/03:00pm 15.4 12.7 11.7 78 2.0 NW 17 33 9 18 1016.2 1016.3 0.0
29/02:30pm 15.5 11.4 11.6 77 2.1 NW 24 41 13 22 1016.1 - 0.0
29/02:00pm 15.7 11.6 11.4 75 2.3 NW 24 44 13 24 1016.1 - 0.0
29/01:30pm 15.9 11.4 11.5 75 2.4 NW 26 50 14 27 1016.0 - 0.0
29/01:26pm 15.8 10.9 11.3 74 2.4 NW 28 50 15 27 1016.2 - 0.0
29/01:00pm 16.7 12.7 11.7 72 2.7 NW 24 37 13 20 1016.2 - 0.0
29/12:30pm 15.8 12.0 11.3 74 2.4 NW 22 33 12 18 1016.5 - 0.0
29/12:00pm 16.7 12.2 11.3 70 2.9 NW 26 41 14 22 1016.8 1016.9 0.0
29/11:31am 15.5 10.5 11.0 74 2.4 NW 28 46 15 25 1017.2 - 0.0
29/11:30am 15.5 10.9 11.2 75 2.3 NNW 26 43 14 23 1017.2 - 0.0
29/11:00am 14.8 11.4 11.2 79 1.9 NW 20 37 11 20 1017.2 - 0.0
29/10:30am 14.3 10.9 11.1 81 1.7 NNW 20 32 11 17 1017.0 - 0.0
29/10:00am 13.7 10.3 10.6 81 1.6 NNW 19 32 10 17 1017.3 - 0.0
29/09:30am 13.2 9.7 10.3 82 1.5 NNW 19 30 10 16 1017.1 - 0.0
29/09:00am 12.7 9.2 10.2 85 1.3 NNW 19 28 10 15 1016.8 1016.9 0.0
29/08:30am 12.6 8.8 9.9 83 1.4 NNW 20 33 11 18 1016.5 - 0.0
29/08:00am 12.3 9.0 9.7 84 1.3 NNW 17 26 9 14 1016.3 - 0.0
29/07:30am 11.8 8.8 9.4 85 1.2 NNW 15 24 8 13 1016.4 - 0.0
29/07:00am 10.5 7.7 8.7 89 0.9 N 13 19 7 10 1016.2 - 0.0
29/06:30am 10.0 7.4 7.9 87 1.0 N 11 17 6 9 1016.0 - 0.0
29/06:00am 10.1 7.5 7.6 84 1.2 N 11 17 6 9 1015.6 1015.7 0.0
29/05:30am 9.5 6.6 6.7 83 1.3 N 11 15 6 8 1016.0 - 0.0
29/05:00am 9.4 5.7 6.4 81 1.4 NNW 15 22 8 12 1015.7 - 0.0
29/04:30am 9.5 6.6 6.3 80 1.5 N 11 17 6 9 1015.9 - 0.0
29/04:00am 9.5 7.0 6.5 81 1.4 NE 9 15 5 8 1016.3 - 0.0
29/03:30am 9.6 7.1 6.6 81 1.4 NNE 9 15 5 8 1016.5 - 0.0
29/03:00am 9.7 7.2 6.7 81 1.4 NNE 9 15 5 8 1016.2 1016.3 0.0
29/02:30am 9.5 6.6 6.7 83 1.3 NE 11 15 6 8 1016.4 - 0.0
29/02:00am 9.2 6.8 7.1 87 1.0 NE 9 15 5 8 1016.5 - 0.0
29/01:30am 9.3 6.9 7.2 87 1.0 NE 9 15 5 8 1016.8 - 0.0
29/01:00am 9.2 6.5 7.3 88 0.9 ENE 11 13 6 7 1016.8 - 0.0
29/12:30am 9.4 7.2 7.7 89 0.8 ENE 9 13 5 7 1017.0 - 0.0
29/12:00am 9.8 7.6 7.9 88 0.9 NNE 9 13 5 7 1017.2 1017.3 0.0
 
Date/Time
CST
Tmp

°C
App
Tmp
°C
Dew
Point
°C
Rel
Hum
%
Delta-T

°C
Wind Press
QNH
hPa
Press
MSL
hPa
Rain
since
9 am
mm
Dir
 
Spd
km/h
Gust
km/h
Spd
kts
Gust
kts
28/11:30pm 9.6 7.9 8.4 92 0.6 NE 7 11 4 6 1017.0 - 0.0
28/11:00pm 10.3 8.3 8.7 90 0.8 NE 9 13 5 7 1017.3 - 0.0
28/10:30pm 10.2 8.2 8.8 91 0.7 ENE 9 11 5 6 1017.3 - 0.0
28/10:00pm 10.6 9.3 9.2 91 0.7 NE 6 7 3 4 1017.4 - 0.0
28/09:30pm 11.3 9.9 9.5 89 0.9 N 7 9 4 5 1017.3 - 0.0
28/09:00pm 11.3 9.6 9.9 91 0.7 N 9 11 5 6 1017.4 1017.5 0.0
28/08:30pm 11.7 10.0 9.9 89 0.9 N 9 13 5 7 1017.3 - 0.0
28/08:00pm 11.9 10.3 10.1 89 0.9 N 9 13 5 7 1017.2 - 0.0
28/07:30pm 12.0 10.4 10.2 89 0.9 N 9 11 5 6 1017.0 - 0.0
28/07:00pm 12.6 11.0 10.3 86 1.2 N 9 11 5 6 1016.8 - 0.0
28/06:30pm 13.1 11.2 10.4 84 1.4 NNW 11 15 6 8 1016.6 - 0.0
28/06:00pm 13.5 11.2 10.4 81 1.6 NNW 13 17 7 9 1016.5 1016.6 0.0
28/05:30pm 14.1 12.3 10.7 80 1.8 NNW 11 20 6 11 1016.5 - 0.0
28/05:00pm 14.7 11.3 10.5 76 2.2 NNW 19 28 10 15 1016.6 - 0.0
28/04:30pm 15.2 11.3 10.7 74 2.4 NNW 22 37 12 20 1016.1 - 0.0
28/04:00pm 16.1 12.7 11.1 72 2.7 NNW 20 37 11 20 1015.9 - 0.0
28/03:30pm 16.5 13.2 10.9 69 3.0 NNW 19 28 10 15 1016.4 - 0.0
28/03:00pm 16.1 12.9 11.3 73 2.6 NW 19 33 10 18 1016.4 1016.5 0.0
28/02:30pm 16.2 13.4 11.2 72 2.7 NNW 17 28 9 15 1016.6 - 0.0
28/02:00pm 15.2 12.3 10.9 75 2.3 NW 17 20 9 11 1016.9 - 0.0
28/01:30pm 14.8 12.5 10.6 76 2.2 N 13 20 7 11 1017.0 - 0.0
28/01:00pm 14.1 11.1 10.7 80 1.8 NNW 17 24 9 13 1017.5 - 0.0
28/12:30pm 13.9 10.9 10.7 81 1.7 NNW 17 24 9 13 1017.9 - 0.0
28/12:00pm 13.8 11.8 10.3 79 1.8 NNW 11 17 6 9 1018.2 1018.3 0.0
28/11:30am 13.9 11.0 9.8 76 2.1 NNW 15 22 8 12 1018.5 - 0.0
28/11:00am 13.7 10.4 9.4 75 2.2 NNW 17 24 9 13 1018.8 - 0.0
28/10:30am 13.3 10.9 8.7 73 2.3 NNW 11 17 6 9 1019.1 - 0.0
28/10:00am 13.0 10.0 7.9 71 2.5 N 13 20 7 11 1019.1 - 0.0
28/09:30am 12.5 9.8 7.3 70 2.5 N 11 19 6 10 1019.1 - 0.0
28/09:00am 12.0 9.2 6.8 70 2.5 N 11 15 6 8 1019.0 1019.1 0.0
28/08:30am 11.4 8.1 6.3 71 2.4 N 13 19 7 10 1018.9 - 0.0
28/08:00am 11.0 8.8 6.3 73 2.2 N 7 11 4 6 1018.6 - 0.0
28/07:30am 10.7 8.1 6.2 74 2.1 N 9 15 5 8 1018.3 - 0.0
28/07:00am 11.1 8.5 5.9 70 2.4 N 9 13 5 7 1018.2 - 0.0
28/06:30am 11.2 8.5 5.6 68 2.6 N 9 13 5 7 1017.9 - 0.0
28/06:00am 11.2 8.5 5.8 69 2.5 N 9 13 5 7 1017.9 1018.0 0.0
28/05:30am 11.2 8.8 5.3 67 2.7 N 7 11 4 6 1017.8 - 0.0
28/05:00am 11.1 8.7 5.2 67 2.7 NNE 7 11 4 6 1017.9 - 0.0
28/04:30am 10.7 7.5 5.2 69 2.5 NE 11 17 6 9 1017.9 - 0.0
28/04:00am 10.0 7.2 5.1 71 2.2 NE 9 13 5 7 1018.2 - 0.0
28/03:30am 10.1 7.3 5.0 70 2.3 NE 9 11 5 6 1018.2 - 0.0
28/03:00am 10.2 7.8 5.1 70 2.3 NE 7 11 4 6 1018.3 1018.4 0.0
28/02:30am 10.2 7.8 5.4 72 2.2 NNE 7 11 4 6 1018.4 - 0.0
28/02:00am 11.3 8.8 4.9 65 2.9 NE 7 11 4 6 1018.3 - 0.0
28/01:30am 11.9 9.6 4.9 62 3.2 NE 6 9 3 5 1018.3 - 0.0
28/01:00am 12.5 10.0 4.9 60 3.5 NNE 7 13 4 7 1018.3 - 0.0
28/12:30am 13.0 10.2 5.0 58 3.7 N 9 15 5 8 1018.5 - 0.0
28/12:00am 13.2 10.7 4.7 56 3.9 N 7 15 4 8 1018.7 1018.8 0.0
 
Date/Time
CST
Tmp

°C
App
Tmp
°C
Dew
Point
°C
Rel
Hum
%
Delta-T

°C
Wind Press
QNH
hPa
Press
MSL
hPa
Rain
since
9 am
mm
Dir
 
Spd
km/h
Gust
km/h
Spd
kts
Gust
kts
27/11:30pm 13.2 10.7 5.0 57 3.8 N 7 17 4 9 1018.9 - 0.0
27/11:00pm 13.4 10.6 5.0 57 3.9 N 9 17 5 9 1019.0 - 0.0
27/10:30pm 14.0 10.3 4.7 53 4.3 N 13 19 7 10 1019.2 - 0.0
27/10:00pm 14.4 10.7 4.7 52 4.5 N 13 24 7 13 1019.3 - 0.0
27/09:30pm 14.7 11.5 4.9 52 4.6 N 11 19 6 10 1019.5 - 0.0
27/09:00pm 14.7 12.0 5.4 53 4.4 N 9 17 5 9 1019.4 1019.5 0.0
27/08:30pm 14.9 11.4 5.4 53 4.5 N 13 20 7 11 1019.3 - 0.0
27/08:00pm 14.7 11.7 5.9 55 4.2 N 11 15 6 8 1019.6 - 0.0
27/07:30pm 14.6 12.0 6.3 57 4.0 N 9 15 5 8 1019.8 - 0.0
27/07:00pm 14.7 12.2 6.7 58 3.9 N 9 17 5 9 1019.8 - 0.0
27/06:30pm 15.3 12.4 6.4 55 4.3 N 11 19 6 10 1019.8 - 0.0
27/06:00pm 15.6 12.3 6.6 55 4.4 N 13 22 7 12 1019.8 1019.9 0.0
27/05:30pm 15.8 13.0 6.8 55 4.4 N 11 19 6 10 1019.6 - 0.0
27/05:00pm 16.2 12.6 6.6 53 4.7 N 15 20 8 11 1019.6 - 0.0
27/04:30pm 16.4 12.8 6.9 53 4.7 N 15 22 8 12 1019.5 - 0.0
27/04:00pm 16.7 13.2 7.3 54 4.7 NNW 15 28 8 15 1019.7 - 0.0
27/03:30pm 17.0 13.9 7.4 53 4.8 NNW 13 20 7 11 1019.6 - 0.0
27/03:00pm 16.5 12.6 7.0 53 4.7 NNW 17 28 9 15 1019.9 1020.0 0.0
27/02:30pm 16.8 12.2 6.6 51 5.0 NNW 20 28 11 15 1020.1 - 0.0
27/02:00pm 16.7 12.8 7.0 52 4.8 N 17 28 9 15 1020.4 - 0.0
27/01:30pm 16.3 12.3 6.7 53 4.7 N 17 28 9 15 1020.7 - 0.0
27/01:00pm 16.0 11.5 7.1 55 4.4 N 20 35 11 19 1020.8 - 0.0
27/12:30pm 15.6 11.0 6.6 55 4.4 NNW 20 35 11 19 1021.8 - 0.0
27/12:00pm 15.8 10.6 5.3 49 5.0 N 22 33 12 18 1022.2 1022.3 0.0
27/11:30am 15.7 10.9 5.4 50 4.9 NNW 20 32 11 17 1022.9 - 0.0
27/11:00am 15.3 9.2 4.6 49 5.0 N 26 39 14 21 1023.3 - 0.0
27/10:30am 15.1 9.4 4.8 50 4.8 N 24 37 13 20 1023.7 - 0.0
27/10:00am 14.3 9.3 4.8 53 4.4 N 20 30 11 16 1023.9 - 0.0
27/09:30am 13.6 9.6 4.7 55 4.1 N 15 24 8 13 1024.3 - 0.0
27/09:00am 12.2 9.4 5.3 62 3.2 N 9 15 5 8 1024.7 1024.8 0.0
27/08:30am 10.8 8.4 5.3 69 2.5 NNE 7 13 4 7 1024.5 - 0.0
27/08:00am 10.2 7.4 5.1 70 2.3 NE 9 13 5 7 1024.1 - 0.0
27/07:30am 9.0 5.9 5.4 78 1.6 NE 11 17 6 9 1024.0 - 0.0
27/07:00am 8.2 5.5 5.5 83 1.2 NE 9 11 5 6 1024.2 - 0.0
27/06:30am 8.5 5.8 5.8 83 1.2 NE 9 13 5 7 1024.1 - 0.0
27/06:00am 9.0 6.7 5.7 80 1.5 ENE 7 11 4 6 1023.9 1024.0 0.0
27/05:30am 9.8 7.1 5.6 75 1.9 NNE 9 15 5 8 1023.9 - 0.0
27/05:00am 9.1 6.4 5.6 79 1.6 NNE 9 15 5 8 1024.0 - 0.0
27/04:30am 8.8 5.8 5.9 82 1.3 NNE 11 15 6 8 1024.3 - 0.0
27/04:00am 8.2 5.6 6.0 86 1.0 NE 9 11 5 6 1024.6 - 0.0
27/03:30am 8.2 5.6 6.0 86 1.0 NE 9 11 5 6 1024.7 - 0.0
27/03:00am 7.5 4.9 5.9 90 0.7 NE 9 13 5 7 1024.7 1024.8 0.0
27/02:30am 7.6 4.9 5.8 88 0.8 NE 9 15 5 8 1024.7 - 0.0
27/02:00am 7.1 4.8 5.5 89 0.7 NE 7 13 4 7 1024.9 - 0.0
27/01:30am 6.5 4.1 5.4 93 0.5 NE 7 13 4 7 1024.9 - 0.0
27/01:00am 6.6 3.9 5.7 94 0.4 ENE 9 11 5 6 1025.0 - 0.0
27/12:30am 6.8 4.7 5.9 94 0.4 NNE 6 9 3 5 1025.4 - 0.0
27/12:00am 6.8 4.7 5.9 94 0.4 ENE 6 7 3 4 1025.4 1025.5 0.0
 
Date/Time
CST
Tmp

°C
App
Tmp
°C
Dew
Point
°C
Rel
Hum
%
Delta-T

°C
Wind Press
QNH
hPa
Press
MSL
hPa
Rain
since
9 am
mm
Dir
 
Spd
km/h
Gust
km/h
Spd
kts
Gust
kts
26/11:30pm 7.3 5.1 6.2 93 0.5 ENE 7 9 4 5 1025.7 - 0.0
26/11:00pm 7.7 5.5 6.4 91 0.6 NE 7 9 4 5 1026.1 - 0.0
26/10:30pm 7.8 6.2 6.5 91 0.6 N 4 7 2 4 1026.2 - 0.0
26/10:00pm 8.3 6.4 6.8 90 0.7 NNE 6 7 3 4 1026.3 - 0.0
26/09:30pm 8.4 6.4 7.1 91 0.6 NE 7 9 4 5 1026.5 - 0.0
26/09:00pm 8.6 6.6 7.3 91 0.6 ENE 7 9 4 5 1026.5 1026.6 0.0
26/08:30pm 8.9 7.5 7.4 90 0.7 ENE 4 7 2 4 1026.6 - 0.0

Latest Capital City Observations: Canberra | Sydney | Melbourne | Brisbane | Adelaide | Perth | Hobart | Darwin

Other Formats:

Comma delimited format used in spreadsheet applications
http://www.bom.gov.au/fwo/IDS60901/IDS60901.94675.axf

JavaScript Object Notation format (JSON) in row-major order
http://www.bom.gov.au/fwo/IDS60901/IDS60901.94675.json